sensor_id;sensor_type;location;lat;lon;timestamp;P1;durP1;ratioP1;P2;durP2;ratioP2
20531;SDS011;10424;52.102;8.084;2024-03-02T00:00:18;11.32;;;6.40;;
20531;SDS011;10424;52.102;8.084;2024-03-02T00:02:46;10.15;;;6.05;;
20531;SDS011;10424;52.102;8.084;2024-03-02T00:05:16;10.82;;;6.65;;
20531;SDS011;10424;52.102;8.084;2024-03-02T00:07:45;11.02;;;6.43;;
20531;SDS011;10424;52.102;8.084;2024-03-02T00:10:14;13.88;;;6.93;;
20531;SDS011;10424;52.102;8.084;2024-03-02T00:12:43;11.73;;;6.97;;
20531;SDS011;10424;52.102;8.084;2024-03-02T00:15:21;11.90;;;7.13;;
20531;SDS011;10424;52.102;8.084;2024-03-02T00:17:52;12.05;;;7.13;;
20531;SDS011;10424;52.102;8.084;2024-03-02T00:20:22;11.80;;;7.20;;
20531;SDS011;10424;52.102;8.084;2024-03-02T00:22:52;12.60;;;6.90;;
20531;SDS011;10424;52.102;8.084;2024-03-02T00:25:23;11.05;;;6.85;;
20531;SDS011;10424;52.102;8.084;2024-03-02T00:27:51;11.50;;;6.55;;
20531;SDS011;10424;52.102;8.084;2024-03-02T00:30:27;12.52;;;7.38;;
20531;SDS011;10424;52.102;8.084;2024-03-02T00:33:00;12.43;;;7.53;;
20531;SDS011;10424;52.102;8.084;2024-03-02T00:35:29;13.15;;;7.53;;
20531;SDS011;10424;52.102;8.084;2024-03-02T00:37:56;12.18;;;7.20;;
20531;SDS011;10424;52.102;8.084;2024-03-02T00:40:23;12.68;;;7.20;;
20531;SDS011;10424;52.102;8.084;2024-03-02T00:42:55;13.48;;;7.63;;
20531;SDS011;10424;52.102;8.084;2024-03-02T00:45:22;15.05;;;7.63;;
20531;SDS011;10424;52.102;8.084;2024-03-02T00:47:50;14.90;;;8.20;;
20531;SDS011;10424;52.102;8.084;2024-03-02T00:50:17;14.20;;;6.80;;
20531;SDS011;10424;52.102;8.084;2024-03-02T00:52:46;13.40;;;7.65;;
20531;SDS011;10424;52.102;8.084;2024-03-02T00:55:13;12.90;;;7.40;;
20531;SDS011;10424;52.102;8.084;2024-03-02T00:57:40;14.30;;;8.15;;
20531;SDS011;10424;52.102;8.084;2024-03-02T01:00:09;15.68;;;7.95;;
20531;SDS011;10424;52.102;8.084;2024-03-02T01:02:40;13.63;;;7.65;;
20531;SDS011;10424;52.102;8.084;2024-03-02T01:05:09;12.60;;;7.50;;
20531;SDS011;10424;52.102;8.084;2024-03-02T01:07:37;16.60;;;8.30;;
20531;SDS011;10424;52.102;8.084;2024-03-02T01:10:06;14.80;;;7.97;;
20531;SDS011;10424;52.102;8.084;2024-03-02T01:12:34;14.10;;;8.00;;
20531;SDS011;10424;52.102;8.084;2024-03-02T01:15:02;14.20;;;8.27;;
20531;SDS011;10424;52.102;8.084;2024-03-02T01:17:33;14.70;;;8.35;;
20531;SDS011;10424;52.102;8.084;2024-03-02T01:20:00;14.25;;;8.30;;
20531;SDS011;10424;52.102;8.084;2024-03-02T01:22:28;17.00;;;9.00;;
20531;SDS011;10424;52.102;8.084;2024-03-02T01:24:55;15.45;;;8.23;;
20531;SDS011;10424;52.102;8.084;2024-03-02T01:27:23;15.67;;;8.70;;
20531;SDS011;10424;52.102;8.084;2024-03-02T01:29:50;16.07;;;8.87;;
20531;SDS011;10424;52.102;8.084;2024-03-02T01:32:18;15.10;;;8.43;;
20531;SDS011;10424;52.102;8.084;2024-03-02T01:34:45;16.37;;;9.07;;
20531;SDS011;10424;52.102;8.084;2024-03-02T01:37:12;16.80;;;9.07;;
20531;SDS011;10424;52.102;8.084;2024-03-02T01:39:38;16.83;;;8.87;;
20531;SDS011;10424;52.102;8.084;2024-03-02T01:42:05;17.67;;;8.67;;
20531;SDS011;10424;52.102;8.084;2024-03-02T01:44:34;16.33;;;8.80;;
20531;SDS011;10424;52.102;8.084;2024-03-02T01:47:01;15.37;;;9.00;;
20531;SDS011;10424;52.102;8.084;2024-03-02T01:49:28;17.33;;;9.03;;
20531;SDS011;10424;52.102;8.084;2024-03-02T01:51:55;16.20;;;9.00;;
20531;SDS011;10424;52.102;8.084;2024-03-02T01:54:23;15.63;;;8.90;;
20531;SDS011;10424;52.102;8.084;2024-03-02T01:56:50;16.40;;;9.20;;
20531;SDS011;10424;52.102;8.084;2024-03-02T01:59:18;17.00;;;8.87;;
20531;SDS011;10424;52.102;8.084;2024-03-02T02:01:46;15.27;;;8.55;;
20531;SDS011;10424;52.102;8.084;2024-03-02T02:04:13;15.10;;;8.37;;
20531;SDS011;10424;52.102;8.084;2024-03-02T02:06:40;16.73;;;9.68;;
20531;SDS011;10424;52.102;8.084;2024-03-02T02:09:08;17.47;;;9.13;;
20531;SDS011;10424;52.102;8.084;2024-03-02T02:11:35;16.00;;;9.13;;
20531;SDS011;10424;52.102;8.084;2024-03-02T02:14:02;16.63;;;9.13;;
20531;SDS011;10424;52.102;8.084;2024-03-02T02:16:29;17.43;;;9.00;;
20531;SDS011;10424;52.102;8.084;2024-03-02T02:18:58;16.07;;;9.53;;
20531;SDS011;10424;52.102;8.084;2024-03-02T02:21:26;15.63;;;9.27;;
20531;SDS011;10424;52.102;8.084;2024-03-02T02:23:53;15.63;;;8.73;;
20531;SDS011;10424;52.102;8.084;2024-03-02T02:26:20;16.67;;;8.73;;
20531;SDS011;10424;52.102;8.084;2024-03-02T02:28:48;14.53;;;8.00;;
20531;SDS011;10424;52.102;8.084;2024-03-02T02:31:15;15.27;;;8.47;;
20531;SDS011;10424;52.102;8.084;2024-03-02T02:33:42;15.97;;;8.93;;
20531;SDS011;10424;52.102;8.084;2024-03-02T02:36:09;13.90;;;8.33;;
20531;SDS011;10424;52.102;8.084;2024-03-02T02:38:39;16.87;;;8.37;;
20531;SDS011;10424;52.102;8.084;2024-03-02T02:41:07;15.43;;;8.63;;
20531;SDS011;10424;52.102;8.084;2024-03-02T02:43:34;15.37;;;8.57;;
20531;SDS011;10424;52.102;8.084;2024-03-02T02:46:01;14.17;;;8.00;;
20531;SDS011;10424;52.102;8.084;2024-03-02T02:48:28;14.17;;;8.47;;
20531;SDS011;10424;52.102;8.084;2024-03-02T02:50:56;16.97;;;8.87;;
20531;SDS011;10424;52.102;8.084;2024-03-02T02:53:23;15.03;;;8.43;;
20531;SDS011;10424;52.102;8.084;2024-03-02T02:55:51;13.53;;;7.90;;
20531;SDS011;10424;52.102;8.084;2024-03-02T02:58:18;14.43;;;8.60;;
20531;SDS011;10424;52.102;8.084;2024-03-02T03:00:46;15.43;;;8.73;;
20531;SDS011;10424;52.102;8.084;2024-03-02T03:03:13;14.83;;;8.60;;
20531;SDS011;10424;52.102;8.084;2024-03-02T03:05:40;14.10;;;8.00;;
20531;SDS011;10424;52.102;8.084;2024-03-02T03:08:07;13.13;;;8.32;;
20531;SDS011;10424;52.102;8.084;2024-03-02T03:10:34;15.85;;;8.45;;
20531;SDS011;10424;52.102;8.084;2024-03-02T03:13:03;16.60;;;8.90;;
20531;SDS011;10424;52.102;8.084;2024-03-02T03:15:33;14.13;;;7.88;;
20531;SDS011;10424;52.102;8.084;2024-03-02T03:18:01;14.87;;;8.70;;
20531;SDS011;10424;52.102;8.084;2024-03-02T03:20:29;15.93;;;8.40;;
20531;SDS011;10424;52.102;8.084;2024-03-02T03:22:56;16.70;;;8.33;;
20531;SDS011;10424;52.102;8.084;2024-03-02T03:25:23;15.63;;;8.80;;
20531;SDS011;10424;52.102;8.084;2024-03-02T03:27:51;17.00;;;9.03;;
20531;SDS011;10424;52.102;8.084;2024-03-02T03:30:19;15.40;;;8.77;;
20531;SDS011;10424;52.102;8.084;2024-03-02T03:32:46;15.60;;;8.57;;
20531;SDS011;10424;52.102;8.084;2024-03-02T03:35:14;16.50;;;8.80;;
20531;SDS011;10424;52.102;8.084;2024-03-02T03:37:41;14.77;;;8.80;;
20531;SDS011;10424;52.102;8.084;2024-03-02T03:40:08;14.57;;;8.43;;
20531;SDS011;10424;52.102;8.084;2024-03-02T03:42:36;15.63;;;8.93;;
20531;SDS011;10424;52.102;8.084;2024-03-02T03:45:03;15.37;;;8.50;;
20531;SDS011;10424;52.102;8.084;2024-03-02T03:47:33;17.43;;;8.73;;
20531;SDS011;10424;52.102;8.084;2024-03-02T03:50:00;14.77;;;8.70;;
20531;SDS011;10424;52.102;8.084;2024-03-02T03:52:29;14.93;;;8.77;;
20531;SDS011;10424;52.102;8.084;2024-03-02T03:54:56;15.63;;;9.03;;
20531;SDS011;10424;52.102;8.084;2024-03-02T03:57:24;15.73;;;9.20;;
20531;SDS011;10424;52.102;8.084;2024-03-02T03:59:51;15.67;;;9.10;;
20531;SDS011;10424;52.102;8.084;2024-03-02T04:02:18;15.87;;;9.03;;
20531;SDS011;10424;52.102;8.084;2024-03-02T04:04:46;16.33;;;9.50;;
20531;SDS011;10424;52.102;8.084;2024-03-02T04:07:14;15.87;;;8.77;;
20531;SDS011;10424;52.102;8.084;2024-03-02T04:09:41;15.43;;;8.83;;
20531;SDS011;10424;52.102;8.084;2024-03-02T04:12:08;15.40;;;8.90;;
20531;SDS011;10424;52.102;8.084;2024-03-02T04:14:35;16.30;;;8.40;;
20531;SDS011;10424;52.102;8.084;2024-03-02T04:17:02;14.70;;;8.50;;
20531;SDS011;10424;52.102;8.084;2024-03-02T04:19:30;15.73;;;9.00;;
20531;SDS011;10424;52.102;8.084;2024-03-02T04:21:58;15.37;;;9.00;;
20531;SDS011;10424;52.102;8.084;2024-03-02T04:24:25;17.10;;;9.52;;
20531;SDS011;10424;52.102;8.084;2024-03-02T04:26:52;16.37;;;9.77;;
20531;SDS011;10424;52.102;8.084;2024-03-02T04:29:20;16.70;;;9.20;;
20531;SDS011;10424;52.102;8.084;2024-03-02T04:31:47;17.40;;;9.60;;
20531;SDS011;10424;52.102;8.084;2024-03-02T04:34:14;16.83;;;9.60;;
20531;SDS011;10424;52.102;8.084;2024-03-02T04:36:41;15.97;;;9.70;;
20531;SDS011;10424;52.102;8.084;2024-03-02T04:39:10;16.83;;;10.10;;
20531;SDS011;10424;52.102;8.084;2024-03-02T04:41:37;17.00;;;9.03;;
20531;SDS011;10424;52.102;8.084;2024-03-02T04:44:04;20.00;;;10.37;;
20531;SDS011;10424;52.102;8.084;2024-03-02T04:46:33;17.43;;;10.23;;
20531;SDS011;10424;52.102;8.084;2024-03-02T04:49:00;17.10;;;10.10;;
20531;SDS011;10424;52.102;8.084;2024-03-02T04:51:27;20.03;;;9.80;;
20531;SDS011;10424;52.102;8.084;2024-03-02T04:53:54;21.00;;;10.50;;
20531;SDS011;10424;52.102;8.084;2024-03-02T04:56:23;17.83;;;10.40;;
20531;SDS011;10424;52.102;8.084;2024-03-02T04:59:05;19.47;;;10.70;;
20531;SDS011;10424;52.102;8.084;2024-03-02T05:01:33;17.23;;;10.03;;
20531;SDS011;10424;52.102;8.084;2024-03-02T05:04:00;19.40;;;10.63;;
20531;SDS011;10424;52.102;8.084;2024-03-02T05:06:27;18.83;;;10.97;;
20531;SDS011;10424;52.102;8.084;2024-03-02T05:08:55;19.48;;;11.40;;
20531;SDS011;10424;52.102;8.084;2024-03-02T05:11:23;21.17;;;11.57;;
20531;SDS011;10424;52.102;8.084;2024-03-02T05:14:08;19.40;;;10.80;;
20531;SDS011;10424;52.102;8.084;2024-03-02T05:16:36;20.08;;;10.77;;
20531;SDS011;10424;52.102;8.084;2024-03-02T05:19:03;20.63;;;12.13;;
20531;SDS011;10424;52.102;8.084;2024-03-02T05:21:31;23.70;;;11.10;;
20531;SDS011;10424;52.102;8.084;2024-03-02T05:23:59;21.45;;;11.90;;
20531;SDS011;10424;52.102;8.084;2024-03-02T05:26:28;20.87;;;11.43;;
20531;SDS011;10424;52.102;8.084;2024-03-02T05:28:55;21.93;;;11.97;;
20531;SDS011;10424;52.102;8.084;2024-03-02T05:31:22;20.60;;;11.65;;
20531;SDS011;10424;52.102;8.084;2024-03-02T05:33:49;23.58;;;12.15;;
20531;SDS011;10424;52.102;8.084;2024-03-02T05:36:17;22.48;;;12.52;;
20531;SDS011;10424;52.102;8.084;2024-03-02T05:38:45;21.50;;;12.33;;
20531;SDS011;10424;52.102;8.084;2024-03-02T05:41:13;24.13;;;12.57;;
20531;SDS011;10424;52.102;8.084;2024-03-02T05:43:41;23.60;;;13.33;;
20531;SDS011;10424;52.102;8.084;2024-03-02T05:46:08;23.97;;;13.07;;
20531;SDS011;10424;52.102;8.084;2024-03-02T05:48:35;22.10;;;12.47;;
20531;SDS011;10424;52.102;8.084;2024-03-02T05:51:03;22.43;;;12.77;;
20531;SDS011;10424;52.102;8.084;2024-03-02T05:53:30;25.23;;;13.67;;
20531;SDS011;10424;52.102;8.084;2024-03-02T05:55:57;23.47;;;12.80;;
20531;SDS011;10424;52.102;8.084;2024-03-02T05:58:24;26.83;;;14.33;;
20531;SDS011;10424;52.102;8.084;2024-03-02T06:01:09;28.70;;;14.40;;
20531;SDS011;10424;52.102;8.084;2024-03-02T06:03:36;25.03;;;13.30;;
20531;SDS011;10424;52.102;8.084;2024-03-02T06:06:03;25.27;;;14.03;;
20531;SDS011;10424;52.102;8.084;2024-03-02T06:08:31;25.97;;;13.97;;
20531;SDS011;10424;52.102;8.084;2024-03-02T06:10:58;25.17;;;13.70;;
20531;SDS011;10424;52.102;8.084;2024-03-02T06:13:26;24.83;;;13.27;;
20531;SDS011;10424;52.102;8.084;2024-03-02T06:15:53;25.87;;;14.37;;
20531;SDS011;10424;52.102;8.084;2024-03-02T06:18:21;26.17;;;13.20;;
20531;SDS011;10424;52.102;8.084;2024-03-02T06:20:48;27.97;;;14.27;;
20531;SDS011;10424;52.102;8.084;2024-03-02T06:23:16;26.17;;;13.60;;
20531;SDS011;10424;52.102;8.084;2024-03-02T06:25:43;27.40;;;13.40;;
20531;SDS011;10424;52.102;8.084;2024-03-02T06:28:10;27.67;;;13.43;;
20531;SDS011;10424;52.102;8.084;2024-03-02T06:30:40;27.80;;;14.40;;
20531;SDS011;10424;52.102;8.084;2024-03-02T06:33:07;27.40;;;15.50;;
20531;SDS011;10424;52.102;8.084;2024-03-02T06:35:36;26.93;;;14.23;;
20531;SDS011;10424;52.102;8.084;2024-03-02T06:38:04;29.80;;;15.02;;
20531;SDS011;10424;52.102;8.084;2024-03-02T06:40:31;23.63;;;13.13;;
20531;SDS011;10424;52.102;8.084;2024-03-02T06:42:59;25.90;;;13.97;;
20531;SDS011;10424;52.102;8.084;2024-03-02T06:45:26;26.50;;;13.68;;
20531;SDS011;10424;52.102;8.084;2024-03-02T06:47:55;24.17;;;13.73;;
20531;SDS011;10424;52.102;8.084;2024-03-02T06:50:22;28.75;;;15.07;;
20531;SDS011;10424;52.102;8.084;2024-03-02T06:52:51;25.33;;;13.90;;
20531;SDS011;10424;52.102;8.084;2024-03-02T06:55:18;24.42;;;13.98;;
20531;SDS011;10424;52.102;8.084;2024-03-02T06:57:45;27.35;;;14.38;;
20531;SDS011;10424;52.102;8.084;2024-03-02T07:00:13;26.20;;;13.10;;
20531;SDS011;10424;52.102;8.084;2024-03-02T07:02:40;28.98;;;14.93;;
20531;SDS011;10424;52.102;8.084;2024-03-02T07:05:08;23.00;;;12.87;;
20531;SDS011;10424;52.102;8.084;2024-03-02T07:07:35;26.00;;;14.37;;
20531;SDS011;10424;52.102;8.084;2024-03-02T07:10:04;25.47;;;13.80;;
20531;SDS011;10424;52.102;8.084;2024-03-02T07:12:32;24.15;;;13.70;;
20531;SDS011;10424;52.102;8.084;2024-03-02T07:14:59;20.60;;;12.32;;
20531;SDS011;10424;52.102;8.084;2024-03-02T07:18:02;22.98;;;12.13;;
20531;SDS011;10424;52.102;8.084;2024-03-02T07:20:29;21.13;;;11.43;;
20531;SDS011;10424;52.102;8.084;2024-03-02T07:22:56;19.15;;;11.25;;
20531;SDS011;10424;52.102;8.084;2024-03-02T07:25:25;18.90;;;11.13;;
20531;SDS011;10424;52.102;8.084;2024-03-02T07:27:52;17.15;;;10.25;;
20531;SDS011;10424;52.102;8.084;2024-03-02T07:30:20;16.60;;;10.88;;
20531;SDS011;10424;52.102;8.084;2024-03-02T07:32:49;16.73;;;10.50;;
20531;SDS011;10424;52.102;8.084;2024-03-02T07:35:16;17.00;;;10.18;;
20531;SDS011;10424;52.102;8.084;2024-03-02T07:37:44;17.77;;;11.27;;
20531;SDS011;10424;52.102;8.084;2024-03-02T07:40:11;18.80;;;10.30;;
20531;SDS011;10424;52.102;8.084;2024-03-02T07:42:40;16.48;;;10.18;;
20531;SDS011;10424;52.102;8.084;2024-03-02T07:45:08;16.52;;;9.95;;
20531;SDS011;10424;52.102;8.084;2024-03-02T07:47:35;16.63;;;9.75;;
20531;SDS011;10424;52.102;8.084;2024-03-02T07:50:02;18.20;;;10.10;;
20531;SDS011;10424;52.102;8.084;2024-03-02T07:52:31;14.25;;;9.70;;
20531;SDS011;10424;52.102;8.084;2024-03-02T07:54:58;15.15;;;10.30;;
20531;SDS011;10424;52.102;8.084;2024-03-02T07:57:26;13.68;;;9.25;;
20531;SDS011;10424;52.102;8.084;2024-03-02T07:59:54;16.20;;;9.20;;
20531;SDS011;10424;52.102;8.084;2024-03-02T08:02:22;14.10;;;9.27;;
20531;SDS011;10424;52.102;8.084;2024-03-02T08:04:49;15.80;;;9.80;;
20531;SDS011;10424;52.102;8.084;2024-03-02T08:07:16;15.10;;;9.30;;
20531;SDS011;10424;52.102;8.084;2024-03-02T08:09:44;14.00;;;9.60;;
20531;SDS011;10424;52.102;8.084;2024-03-02T08:12:11;15.02;;;9.77;;
20531;SDS011;10424;52.102;8.084;2024-03-02T08:14:38;14.23;;;9.57;;
20531;SDS011;10424;52.102;8.084;2024-03-02T08:17:07;13.85;;;9.07;;
20531;SDS011;10424;52.102;8.084;2024-03-02T08:19:36;14.00;;;9.55;;
20531;SDS011;10424;52.102;8.084;2024-03-02T08:22:03;13.60;;;9.00;;
20531;SDS011;10424;52.102;8.084;2024-03-02T08:24:31;13.48;;;8.68;;
20531;SDS011;10424;52.102;8.084;2024-03-02T08:26:59;12.48;;;9.10;;
20531;SDS011;10424;52.102;8.084;2024-03-02T08:29:26;13.75;;;9.10;;
20531;SDS011;10424;52.102;8.084;2024-03-02T08:31:53;10.93;;;7.07;;
20531;SDS011;10424;52.102;8.084;2024-03-02T08:34:22;11.88;;;8.35;;
20531;SDS011;10424;52.102;8.084;2024-03-02T08:36:49;15.68;;;9.00;;
20531;SDS011;10424;52.102;8.084;2024-03-02T08:39:16;13.43;;;8.57;;
20531;SDS011;10424;52.102;8.084;2024-03-02T08:41:44;12.02;;;8.43;;
20531;SDS011;10424;52.102;8.084;2024-03-02T08:44:12;14.48;;;8.63;;
20531;SDS011;10424;52.102;8.084;2024-03-02T08:46:39;11.95;;;8.25;;
20531;SDS011;10424;52.102;8.084;2024-03-02T08:49:07;12.82;;;8.70;;
20531;SDS011;10424;52.102;8.084;2024-03-02T08:51:35;12.75;;;8.30;;
20531;SDS011;10424;52.102;8.084;2024-03-02T08:54:02;11.43;;;8.00;;
20531;SDS011;10424;52.102;8.084;2024-03-02T08:56:30;11.13;;;7.75;;
20531;SDS011;10424;52.102;8.084;2024-03-02T08:58:57;10.05;;;7.65;;
20531;SDS011;10424;52.102;8.084;2024-03-02T09:01:25;10.05;;;7.25;;
20531;SDS011;10424;52.102;8.084;2024-03-02T09:03:52;8.73;;;6.47;;
20531;SDS011;10424;52.102;8.084;2024-03-02T09:06:19;11.15;;;7.22;;
20531;SDS011;10424;52.102;8.084;2024-03-02T09:08:48;10.77;;;6.45;;
20531;SDS011;10424;52.102;8.084;2024-03-02T09:11:17;8.60;;;6.20;;
20531;SDS011;10424;52.102;8.084;2024-03-02T09:13:44;7.78;;;5.78;;
20531;SDS011;10424;52.102;8.084;2024-03-02T09:16:11;8.43;;;6.07;;
20531;SDS011;10424;52.102;8.084;2024-03-02T09:18:38;9.50;;;6.60;;
20531;SDS011;10424;52.102;8.084;2024-03-02T09:21:05;10.00;;;6.57;;
20531;SDS011;10424;52.102;8.084;2024-03-02T09:23:33;9.23;;;6.40;;
20531;SDS011;10424;52.102;8.084;2024-03-02T09:26:01;9.05;;;6.32;;
20531;SDS011;10424;52.102;8.084;2024-03-02T09:28:29;8.60;;;6.30;;
20531;SDS011;10424;52.102;8.084;2024-03-02T09:30:56;7.60;;;5.50;;
20531;SDS011;10424;52.102;8.084;2024-03-02T09:33:23;8.70;;;5.65;;
20531;SDS011;10424;52.102;8.084;2024-03-02T09:35:50;7.40;;;5.35;;
20531;SDS011;10424;52.102;8.084;2024-03-02T09:38:17;8.10;;;5.25;;
20531;SDS011;10424;52.102;8.084;2024-03-02T09:40:45;8.88;;;5.45;;
20531;SDS011;10424;52.102;8.084;2024-03-02T09:43:13;8.63;;;5.40;;
20531;SDS011;10424;52.102;8.084;2024-03-02T09:45:41;7.10;;;5.20;;
20531;SDS011;10424;52.102;8.084;2024-03-02T09:48:08;7.18;;;5.05;;
20531;SDS011;10424;52.102;8.084;2024-03-02T09:50:35;7.78;;;5.38;;
20531;SDS011;10424;52.102;8.084;2024-03-02T09:53:02;7.40;;;5.18;;
20531;SDS011;10424;52.102;8.084;2024-03-02T09:55:30;8.07;;;5.25;;
20531;SDS011;10424;52.102;8.084;2024-03-02T09:57:57;7.70;;;5.70;;
20531;SDS011;10424;52.102;8.084;2024-03-02T10:00:25;6.93;;;5.18;;
20531;SDS011;10424;52.102;8.084;2024-03-02T10:02:52;7.38;;;5.85;;
20531;SDS011;10424;52.102;8.084;2024-03-02T10:05:23;9.60;;;5.80;;
20531;SDS011;10424;52.102;8.084;2024-03-02T10:07:56;8.07;;;5.55;;
20531;SDS011;10424;52.102;8.084;2024-03-02T10:10:26;7.30;;;5.13;;
20531;SDS011;10424;52.102;8.084;2024-03-02T10:13:03;6.85;;;5.22;;
20531;SDS011;10424;52.102;8.084;2024-03-02T10:15:32;6.50;;;4.78;;
20531;SDS011;10424;52.102;8.084;2024-03-02T10:17:59;7.47;;;4.72;;
20531;SDS011;10424;52.102;8.084;2024-03-02T10:20:27;6.13;;;4.53;;
20531;SDS011;10424;52.102;8.084;2024-03-02T10:22:55;6.35;;;4.53;;
20531;SDS011;10424;52.102;8.084;2024-03-02T10:25:28;5.93;;;4.53;;
20531;SDS011;10424;52.102;8.084;2024-03-02T10:27:57;6.18;;;4.80;;
20531;SDS011;10424;52.102;8.084;2024-03-02T10:30:24;5.70;;;4.20;;
20531;SDS011;10424;52.102;8.084;2024-03-02T10:32:53;6.53;;;3.95;;
20531;SDS011;10424;52.102;8.084;2024-03-02T10:35:21;4.60;;;3.70;;
20531;SDS011;10424;52.102;8.084;2024-03-02T10:37:50;5.38;;;3.00;;
20531;SDS011;10424;52.102;8.084;2024-03-02T10:40:19;8.80;;;3.60;;
20531;SDS011;10424;52.102;8.084;2024-03-02T10:42:47;4.32;;;3.40;;
20531;SDS011;10424;52.102;8.084;2024-03-02T10:45:16;5.05;;;2.90;;
20531;SDS011;10424;52.102;8.084;2024-03-02T10:47:44;4.30;;;3.10;;
20531;SDS011;10424;52.102;8.084;2024-03-02T10:50:13;5.38;;;3.20;;
20531;SDS011;10424;52.102;8.084;2024-03-02T10:52:40;5.13;;;3.30;;
20531;SDS011;10424;52.102;8.084;2024-03-02T10:55:08;4.38;;;3.58;;
20531;SDS011;10424;52.102;8.084;2024-03-02T10:57:40;5.65;;;3.28;;
20531;SDS011;10424;52.102;8.084;2024-03-02T11:00:08;3.22;;;2.75;;
20531;SDS011;10424;52.102;8.084;2024-03-02T11:02:40;4.30;;;2.97;;
20531;SDS011;10424;52.102;8.084;2024-03-02T11:05:08;4.88;;;3.10;;
20531;SDS011;10424;52.102;8.084;2024-03-02T11:07:38;6.38;;;2.95;;
20531;SDS011;10424;52.102;8.084;2024-03-02T11:10:06;3.65;;;2.90;;
20531;SDS011;10424;52.102;8.084;2024-03-02T11:12:36;4.43;;;3.00;;
20531;SDS011;10424;52.102;8.084;2024-03-02T11:15:03;6.63;;;3.30;;
20531;SDS011;10424;52.102;8.084;2024-03-02T11:17:31;5.50;;;3.20;;
20531;SDS011;10424;52.102;8.084;2024-03-02T11:19:59;7.55;;;3.15;;
20531;SDS011;10424;52.102;8.084;2024-03-02T11:22:26;4.00;;;3.20;;
20531;SDS011;10424;52.102;8.084;2024-03-02T11:24:56;4.65;;;3.10;;
20531;SDS011;10424;52.102;8.084;2024-03-02T11:30:11;3.53;;;2.70;;
20531;SDS011;10424;52.102;8.084;2024-03-02T11:32:59;5.03;;;3.08;;
20531;SDS011;10424;52.102;8.084;2024-03-02T11:35:28;4.03;;;3.08;;
20531;SDS011;10424;52.102;8.084;2024-03-02T11:37:55;4.03;;;2.55;;
20531;SDS011;10424;52.102;8.084;2024-03-02T11:40:25;4.15;;;2.72;;
20531;SDS011;10424;52.102;8.084;2024-03-02T11:42:52;4.35;;;2.92;;
20531;SDS011;10424;52.102;8.084;2024-03-02T11:45:22;3.97;;;2.90;;
20531;SDS011;10424;52.102;8.084;2024-03-02T11:47:49;3.33;;;2.60;;
20531;SDS011;10424;52.102;8.084;2024-03-02T11:50:20;5.40;;;2.80;;
20531;SDS011;10424;52.102;8.084;2024-03-02T11:52:55;3.30;;;2.40;;
20531;SDS011;10424;52.102;8.084;2024-03-02T11:55:22;3.15;;;2.53;;
20531;SDS011;10424;52.102;8.084;2024-03-02T11:57:51;3.25;;;2.33;;
20531;SDS011;10424;52.102;8.084;2024-03-02T12:00:19;3.30;;;2.50;;
20531;SDS011;10424;52.102;8.084;2024-03-02T12:02:46;4.85;;;2.42;;
20531;SDS011;10424;52.102;8.084;2024-03-02T12:05:15;2.63;;;2.20;;
20531;SDS011;10424;52.102;8.084;2024-03-02T12:07:42;3.20;;;2.33;;
20531;SDS011;10424;52.102;8.084;2024-03-02T12:10:09;3.10;;;2.20;;
20531;SDS011;10424;52.102;8.084;2024-03-02T12:12:37;3.63;;;2.17;;
20531;SDS011;10424;52.102;8.084;2024-03-02T12:15:06;3.05;;;2.20;;
20531;SDS011;10424;52.102;8.084;2024-03-02T12:17:35;2.42;;;1.98;;
20531;SDS011;10424;52.102;8.084;2024-03-02T12:20:04;3.03;;;2.15;;
20531;SDS011;10424;52.102;8.084;2024-03-02T12:22:32;2.50;;;1.83;;
20531;SDS011;10424;52.102;8.084;2024-03-02T12:24:59;2.60;;;1.75;;
20531;SDS011;10424;52.102;8.084;2024-03-02T12:27:28;3.22;;;2.00;;
20531;SDS011;10424;52.102;8.084;2024-03-02T12:29:55;3.10;;;1.80;;
20531;SDS011;10424;52.102;8.084;2024-03-02T12:32:24;2.75;;;1.63;;
20531;SDS011;10424;52.102;8.084;2024-03-02T12:34:52;2.17;;;1.60;;
20531;SDS011;10424;52.102;8.084;2024-03-02T12:37:19;2.85;;;1.48;;
20531;SDS011;10424;52.102;8.084;2024-03-02T12:39:49;1.90;;;1.67;;
20531;SDS011;10424;52.102;8.084;2024-03-02T12:42:17;2.53;;;1.50;;
20531;SDS011;10424;52.102;8.084;2024-03-02T12:44:43;1.83;;;1.50;;
20531;SDS011;10424;52.102;8.084;2024-03-02T12:47:10;3.00;;;1.85;;
20531;SDS011;10424;52.102;8.084;2024-03-02T12:49:40;2.53;;;1.70;;
20531;SDS011;10424;52.102;8.084;2024-03-02T12:52:08;2.50;;;1.63;;
20531;SDS011;10424;52.102;8.084;2024-03-02T12:54:35;2.30;;;1.88;;
20531;SDS011;10424;52.102;8.084;2024-03-02T12:57:03;2.10;;;1.52;;
20531;SDS011;10424;52.102;8.084;2024-03-02T12:59:30;2.13;;;1.40;;
20531;SDS011;10424;52.102;8.084;2024-03-02T13:01:57;3.45;;;1.50;;
20531;SDS011;10424;52.102;8.084;2024-03-02T13:04:24;4.30;;;1.50;;
20531;SDS011;10424;52.102;8.084;2024-03-02T13:06:54;3.45;;;1.17;;
20531;SDS011;10424;52.102;8.084;2024-03-02T13:09:22;1.42;;;1.15;;
20531;SDS011;10424;52.102;8.084;2024-03-02T13:11:50;1.27;;;0.93;;
20531;SDS011;10424;52.102;8.084;2024-03-02T13:14:17;1.23;;;1.00;;
20531;SDS011;10424;52.102;8.084;2024-03-02T13:16:44;4.88;;;1.10;;
20531;SDS011;10424;52.102;8.084;2024-03-02T13:19:12;1.73;;;1.25;;
20531;SDS011;10424;52.102;8.084;2024-03-02T13:21:39;3.00;;;1.20;;
20531;SDS011;10424;52.102;8.084;2024-03-02T13:24:08;1.80;;;1.27;;
20531;SDS011;10424;52.102;8.084;2024-03-02T13:26:35;1.52;;;1.20;;
20531;SDS011;10424;52.102;8.084;2024-03-02T13:29:03;1.63;;;1.40;;
20531;SDS011;10424;52.102;8.084;2024-03-02T13:31:30;2.53;;;1.17;;
20531;SDS011;10424;52.102;8.084;2024-03-02T13:33:57;1.50;;;1.10;;
20531;SDS011;10424;52.102;8.084;2024-03-02T13:36:24;1.40;;;1.13;;
20531;SDS011;10424;52.102;8.084;2024-03-02T13:38:51;1.50;;;0.90;;
20531;SDS011;10424;52.102;8.084;2024-03-02T13:41:20;2.13;;;0.80;;
20531;SDS011;10424;52.102;8.084;2024-03-02T13:43:47;1.30;;;1.00;;
20531;SDS011;10424;52.102;8.084;2024-03-02T13:46:14;1.85;;;1.00;;
20531;SDS011;10424;52.102;8.084;2024-03-02T13:48:57;2.42;;;1.00;;
20531;SDS011;10424;52.102;8.084;2024-03-02T13:51:24;1.35;;;1.10;;
20531;SDS011;10424;52.102;8.084;2024-03-02T13:53:52;1.40;;;1.00;;
20531;SDS011;10424;52.102;8.084;2024-03-02T13:56:21;1.35;;;1.00;;
20531;SDS011;10424;52.102;8.084;2024-03-02T13:58:48;1.70;;;1.00;;
20531;SDS011;10424;52.102;8.084;2024-03-02T14:01:16;1.52;;;1.00;;
20531;SDS011;10424;52.102;8.084;2024-03-02T14:03:43;1.65;;;1.00;;
20531;SDS011;10424;52.102;8.084;2024-03-02T14:06:11;0.95;;;0.80;;
20531;SDS011;10424;52.102;8.084;2024-03-02T14:08:38;1.52;;;1.20;;
20531;SDS011;10424;52.102;8.084;2024-03-02T14:11:07;1.35;;;1.10;;
20531;SDS011;10424;52.102;8.084;2024-03-02T14:13:38;4.85;;;2.25;;
20531;SDS011;10424;52.102;8.084;2024-03-02T14:16:05;4.05;;;2.72;;
20531;SDS011;10424;52.102;8.084;2024-03-02T14:18:34;3.80;;;2.92;;
20531;SDS011;10424;52.102;8.084;2024-03-02T14:21:01;4.05;;;3.10;;
20531;SDS011;10424;52.102;8.084;2024-03-02T14:23:28;4.57;;;3.28;;
20531;SDS011;10424;52.102;8.084;2024-03-02T14:25:56;4.53;;;3.30;;
20531;SDS011;10424;52.102;8.084;2024-03-02T14:28:24;5.28;;;3.65;;
20531;SDS011;10424;52.102;8.084;2024-03-02T14:30:52;4.75;;;3.38;;
20531;SDS011;10424;52.102;8.084;2024-03-02T14:33:20;5.63;;;3.70;;
20531;SDS011;10424;52.102;8.084;2024-03-02T14:35:47;8.50;;;3.90;;
20531;SDS011;10424;52.102;8.084;2024-03-02T14:38:18;5.40;;;3.53;;
20531;SDS011;10424;52.102;8.084;2024-03-02T14:40:46;5.50;;;4.03;;
20531;SDS011;10424;52.102;8.084;2024-03-02T14:43:13;5.93;;;4.32;;